sensor_id;sensor_type;location;lat;lon;timestamp;temperature;humidity
18147;DHT22;9199;48.832;9.182;2023-02-28T00:00:24;-1.00;88.90
18147;DHT22;9199;48.832;9.182;2023-02-28T00:02:51;-1.00;89.20
18147;DHT22;9199;48.832;9.182;2023-02-28T00:05:20;-1.00;89.30
18147;DHT22;9199;48.832;9.182;2023-02-28T00:07:48;-1.10;89.50
18147;DHT22;9199;48.832;9.182;2023-02-28T00:10:16;-1.10;89.80
18147;DHT22;9199;48.832;9.182;2023-02-28T00:12:46;-1.10;89.90
18147;DHT22;9199;48.832;9.182;2023-02-28T00:15:13;-1.20;90.10
18147;DHT22;9199;48.832;9.182;2023-02-28T00:17:39;-1.10;90.20
18147;DHT22;9199;48.832;9.182;2023-02-28T00:20:08;-1.20;90.30
18147;DHT22;9199;48.832;9.182;2023-02-28T00:22:37;-1.20;90.40
18147;DHT22;9199;48.832;9.182;2023-02-28T00:25:05;-1.20;90.60
18147;DHT22;9199;48.832;9.182;2023-02-28T00:27:33;-1.30;90.90
18147;DHT22;9199;48.832;9.182;2023-02-28T00:30:02;-1.30;91.10
18147;DHT22;9199;48.832;9.182;2023-02-28T00:32:30;-1.30;91.30
18147;DHT22;9199;48.832;9.182;2023-02-28T00:34:56;-1.30;91.60
18147;DHT22;9199;48.832;9.182;2023-02-28T00:37:23;-1.30;91.80
18147;DHT22;9199;48.832;9.182;2023-02-28T00:39:50;-1.30;91.80
18147;DHT22;9199;48.832;9.182;2023-02-28T00:42:17;-1.30;92.00
18147;DHT22;9199;48.832;9.182;2023-02-28T00:44:43;-1.30;92.10
18147;DHT22;9199;48.832;9.182;2023-02-28T00:47:11;-1.30;92.30
18147;DHT22;9199;48.832;9.182;2023-02-28T00:49:38;-1.30;92.60
18147;DHT22;9199;48.832;9.182;2023-02-28T00:52:05;-1.30;92.90
18147;DHT22;9199;48.832;9.182;2023-02-28T00:54:31;-1.30;93.00
18147;DHT22;9199;48.832;9.182;2023-02-28T00:56:58;-1.40;93.20
18147;DHT22;9199;48.832;9.182;2023-02-28T00:59:25;-1.40;93.30
18147;DHT22;9199;48.832;9.182;2023-02-28T01:01:52;-1.40;93.50
18147;DHT22;9199;48.832;9.182;2023-02-28T01:04:20;-1.40;93.70
18147;DHT22;9199;48.832;9.182;2023-02-28T01:06:46;-1.40;94.10
18147;DHT22;9199;48.832;9.182;2023-02-28T01:09:13;-1.40;94.10
18147;DHT22;9199;48.832;9.182;2023-02-28T01:11:41;-1.40;94.40
18147;DHT22;9199;48.832;9.182;2023-02-28T01:14:12;-1.40;94.60
18147;DHT22;9199;48.832;9.182;2023-02-28T01:16:39;-1.50;94.70
18147;DHT22;9199;48.832;9.182;2023-02-28T01:19:06;-1.50;95.00
18147;DHT22;9199;48.832;9.182;2023-02-28T01:21:34;-1.50;95.30
18147;DHT22;9199;48.832;9.182;2023-02-28T01:24:02;-1.50;95.50
18147;DHT22;9199;48.832;9.182;2023-02-28T01:26:29;-1.50;95.70
18147;DHT22;9199;48.832;9.182;2023-02-28T01:28:56;-1.50;96.10
18147;DHT22;9199;48.832;9.182;2023-02-28T01:31:23;-1.50;96.30
18147;DHT22;9199;48.832;9.182;2023-02-28T01:33:50;-1.50;96.60
18147;DHT22;9199;48.832;9.182;2023-02-28T01:36:18;-1.60;96.70
18147;DHT22;9199;48.832;9.182;2023-02-28T01:38:46;-1.60;97.00
18147;DHT22;9199;48.832;9.182;2023-02-28T01:41:17;-1.60;97.30
18147;DHT22;9199;48.832;9.182;2023-02-28T01:43:56;-1.60;97.60
18147;DHT22;9199;48.832;9.182;2023-02-28T01:46:23;-1.60;97.80
18147;DHT22;9199;48.832;9.182;2023-02-28T01:48:53;-1.60;97.90
18147;DHT22;9199;48.832;9.182;2023-02-28T01:51:24;-1.60;98.20
18147;DHT22;9199;48.832;9.182;2023-02-28T01:53:57;-1.60;98.50
18147;DHT22;9199;48.832;9.182;2023-02-28T01:56:29;-1.60;98.70
18147;DHT22;9199;48.832;9.182;2023-02-28T01:58:57;-1.60;98.90
18147;DHT22;9199;48.832;9.182;2023-02-28T02:01:25;-1.70;99.20
18147;DHT22;9199;48.832;9.182;2023-02-28T02:03:55;-1.60;99.40
18147;DHT22;9199;48.832;9.182;2023-02-28T02:06:22;-1.60;99.60
18147;DHT22;9199;48.832;9.182;2023-02-28T02:08:49;-1.60;99.90
18147;DHT22;9199;48.832;9.182;2023-02-28T02:11:21;-1.70;99.90
18147;DHT22;9199;48.832;9.182;2023-02-28T02:14:00;-1.70;99.90
18147;DHT22;9199;48.832;9.182;2023-02-28T02:16:47;-1.70;99.90
18147;DHT22;9199;48.832;9.182;2023-02-28T02:22:34;-1.80;99.90
18147;DHT22;9199;48.832;9.182;2023-02-28T02:25:19;-1.80;99.90
18147;DHT22;9199;48.832;9.182;2023-02-28T02:28:14;-1.80;99.90
18147;DHT22;9199;48.832;9.182;2023-02-28T02:31:13;-1.70;99.90
18147;DHT22;9199;48.832;9.182;2023-02-28T02:34:09;-1.70;99.90
18147;DHT22;9199;48.832;9.182;2023-02-28T02:36:43;-1.60;99.90
18147;DHT22;9199;48.832;9.182;2023-02-28T02:39:18;-1.60;99.90
18147;DHT22;9199;48.832;9.182;2023-02-28T02:41:49;-1.60;99.90
18147;DHT22;9199;48.832;9.182;2023-02-28T02:44:20;-1.50;99.90
18147;DHT22;9199;48.832;9.182;2023-02-28T02:46:50;-1.50;99.90
18147;DHT22;9199;48.832;9.182;2023-02-28T02:49:22;-1.50;99.90
18147;DHT22;9199;48.832;9.182;2023-02-28T02:51:51;-1.40;99.90
18147;DHT22;9199;48.832;9.182;2023-02-28T02:54:22;-1.40;99.90
18147;DHT22;9199;48.832;9.182;2023-02-28T02:56:50;-1.40;99.90
18147;DHT22;9199;48.832;9.182;2023-02-28T02:59:20;-1.40;99.90
18147;DHT22;9199;48.832;9.182;2023-02-28T03:01:49;-1.30;99.90
18147;DHT22;9199;48.832;9.182;2023-02-28T03:04:21;-1.30;99.90
18147;DHT22;9199;48.832;9.182;2023-02-28T03:06:49;-1.30;99.90
18147;DHT22;9199;48.832;9.182;2023-02-28T03:09:20;-1.30;99.90
18147;DHT22;9199;48.832;9.182;2023-02-28T03:11:47;-1.30;99.90
18147;DHT22;9199;48.832;9.182;2023-02-28T03:14:29;-1.20;99.90
18147;DHT22;9199;48.832;9.182;2023-02-28T03:17:21;-1.20;99.90
18147;DHT22;9199;48.832;9.182;2023-02-28T03:19:59;-1.20;99.90
18147;DHT22;9199;48.832;9.182;2023-02-28T03:22:43;-1.20;99.90
18147;DHT22;9199;48.832;9.182;2023-02-28T03:25:19;-1.10;99.90
18147;DHT22;9199;48.832;9.182;2023-02-28T03:27:55;-1.10;99.90
18147;DHT22;9199;48.832;9.182;2023-02-28T03:30:29;-1.10;99.90
18147;DHT22;9199;48.832;9.182;2023-02-28T03:33:03;-1.10;99.90
18147;DHT22;9199;48.832;9.182;2023-02-28T03:35:36;-1.00;99.90
18147;DHT22;9199;48.832;9.182;2023-02-28T03:38:08;-1.00;99.90
18147;DHT22;9199;48.832;9.182;2023-02-28T03:40:43;-0.90;99.90
18147;DHT22;9199;48.832;9.182;2023-02-28T03:43:18;-0.90;99.90
18147;DHT22;9199;48.832;9.182;2023-02-28T03:45:47;-0.90;99.90
18147;DHT22;9199;48.832;9.182;2023-02-28T03:48:19;-0.90;99.90
18147;DHT22;9199;48.832;9.182;2023-02-28T03:50:51;-0.90;99.90
18147;DHT22;9199;48.832;9.182;2023-02-28T03:53:24;-0.90;99.90
18147;DHT22;9199;48.832;9.182;2023-02-28T03:55:54;-0.80;99.90
18147;DHT22;9199;48.832;9.182;2023-02-28T03:58:28;-0.90;99.90
18147;DHT22;9199;48.832;9.182;2023-02-28T04:01:01;-0.90;99.90
18147;DHT22;9199;48.832;9.182;2023-02-28T04:03:33;-0.90;99.90
18147;DHT22;9199;48.832;9.182;2023-02-28T04:06:02;-0.90;99.90
18147;DHT22;9199;48.832;9.182;2023-02-28T04:08:30;-0.80;99.90
18147;DHT22;9199;48.832;9.182;2023-02-28T04:11:01;-0.80;99.90
18147;DHT22;9199;48.832;9.182;2023-02-28T04:13:30;-0.80;99.90
18147;DHT22;9199;48.832;9.182;2023-02-28T04:15:56;-0.80;99.90
18147;DHT22;9199;48.832;9.182;2023-02-28T04:18:23;-0.70;99.90
18147;DHT22;9199;48.832;9.182;2023-02-28T04:20:50;-0.70;99.90
18147;DHT22;9199;48.832;9.182;2023-02-28T04:23:18;-0.70;99.90
18147;DHT22;9199;48.832;9.182;2023-02-28T04:25:44;-0.60;99.90
18147;DHT22;9199;48.832;9.182;2023-02-28T04:28:11;-0.70;99.90
18147;DHT22;9199;48.832;9.182;2023-02-28T04:30:38;-0.70;99.90
18147;DHT22;9199;48.832;9.182;2023-02-28T04:33:05;-0.60;99.90
18147;DHT22;9199;48.832;9.182;2023-02-28T04:35:32;-0.70;99.90
18147;DHT22;9199;48.832;9.182;2023-02-28T04:37:59;-0.70;99.90
18147;DHT22;9199;48.832;9.182;2023-02-28T04:40:27;-0.60;99.90
18147;DHT22;9199;48.832;9.182;2023-02-28T04:42:54;-0.60;99.90
18147;DHT22;9199;48.832;9.182;2023-02-28T04:45:21;-0.60;99.90
18147;DHT22;9199;48.832;9.182;2023-02-28T04:47:47;-0.60;99.90
18147;DHT22;9199;48.832;9.182;2023-02-28T04:50:14;-0.60;99.90
18147;DHT22;9199;48.832;9.182;2023-02-28T04:52:41;-0.50;99.90
18147;DHT22;9199;48.832;9.182;2023-02-28T04:55:08;-0.50;99.90
18147;DHT22;9199;48.832;9.182;2023-02-28T04:57:37;-0.50;99.90
18147;DHT22;9199;48.832;9.182;2023-02-28T05:00:04;-0.50;99.90
18147;DHT22;9199;48.832;9.182;2023-02-28T05:02:37;-0.60;99.90
18147;DHT22;9199;48.832;9.182;2023-02-28T05:05:04;-0.60;99.90
18147;DHT22;9199;48.832;9.182;2023-02-28T05:07:30;-0.60;99.90
18147;DHT22;9199;48.832;9.182;2023-02-28T05:09:57;-0.60;99.90
18147;DHT22;9199;48.832;9.182;2023-02-28T05:12:24;-0.60;99.90
18147;DHT22;9199;48.832;9.182;2023-02-28T05:14:52;-0.60;99.90
18147;DHT22;9199;48.832;9.182;2023-02-28T05:17:19;-0.60;99.90
18147;DHT22;9199;48.832;9.182;2023-02-28T05:19:45;-0.50;99.90
18147;DHT22;9199;48.832;9.182;2023-02-28T05:22:13;-0.60;99.90
18147;DHT22;9199;48.832;9.182;2023-02-28T05:24:41;-0.50;99.90
18147;DHT22;9199;48.832;9.182;2023-02-28T05:27:08;-0.50;99.90
18147;DHT22;9199;48.832;9.182;2023-02-28T05:29:35;-0.50;99.90
18147;DHT22;9199;48.832;9.182;2023-02-28T05:32:09;-0.50;99.90
18147;DHT22;9199;48.832;9.182;2023-02-28T05:34:36;-0.40;99.90
18147;DHT22;9199;48.832;9.182;2023-02-28T05:37:03;-0.50;99.90
18147;DHT22;9199;48.832;9.182;2023-02-28T05:39:29;-0.40;99.90
18147;DHT22;9199;48.832;9.182;2023-02-28T05:41:56;-0.40;99.90
18147;DHT22;9199;48.832;9.182;2023-02-28T05:44:23;-0.50;99.90
18147;DHT22;9199;48.832;9.182;2023-02-28T05:46:50;-0.40;99.90
18147;DHT22;9199;48.832;9.182;2023-02-28T05:49:18;-0.50;99.90
18147;DHT22;9199;48.832;9.182;2023-02-28T05:51:44;-0.50;99.90
18147;DHT22;9199;48.832;9.182;2023-02-28T05:54:11;-0.40;99.90
18147;DHT22;9199;48.832;9.182;2023-02-28T05:56:38;-0.50;99.90
18147;DHT22;9199;48.832;9.182;2023-02-28T05:59:06;-0.40;99.90
18147;DHT22;9199;48.832;9.182;2023-02-28T06:01:34;-0.40;99.90
18147;DHT22;9199;48.832;9.182;2023-02-28T06:04:03;-0.40;99.90
18147;DHT22;9199;48.832;9.182;2023-02-28T06:06:31;-0.30;99.90
18147;DHT22;9199;48.832;9.182;2023-02-28T06:08:59;-0.40;99.90
18147;DHT22;9199;48.832;9.182;2023-02-28T06:11:26;-0.40;99.90
18147;DHT22;9199;48.832;9.182;2023-02-28T06:13:53;-0.30;99.90
18147;DHT22;9199;48.832;9.182;2023-02-28T06:16:21;-0.30;99.90
18147;DHT22;9199;48.832;9.182;2023-02-28T06:18:48;-0.20;99.90
18147;DHT22;9199;48.832;9.182;2023-02-28T06:21:14;0.20;99.90
18147;DHT22;9199;48.832;9.182;2023-02-28T06:23:43;1.20;99.90
18147;DHT22;9199;48.832;9.182;2023-02-28T06:26:09;1.70;99.90
18147;DHT22;9199;48.832;9.182;2023-02-28T06:28:36;1.40;99.90
18147;DHT22;9199;48.832;9.182;2023-02-28T06:31:06;1.00;99.90
18147;DHT22;9199;48.832;9.182;2023-02-28T06:33:33;0.70;99.90
18147;DHT22;9199;48.832;9.182;2023-02-28T06:36:00;0.30;99.90
18147;DHT22;9199;48.832;9.182;2023-02-28T06:38:26;0.10;99.90
18147;DHT22;9199;48.832;9.182;2023-02-28T06:40:55;0.00;99.90
18147;DHT22;9199;48.832;9.182;2023-02-28T06:43:23;0.00;99.90
18147;DHT22;9199;48.832;9.182;2023-02-28T06:45:50;0.00;99.90
18147;DHT22;9199;48.832;9.182;2023-02-28T06:48:17;-0.10;99.90
18147;DHT22;9199;48.832;9.182;2023-02-28T06:50:44;-0.10;99.90
18147;DHT22;9199;48.832;9.182;2023-02-28T06:53:11;-0.10;99.90
18147;DHT22;9199;48.832;9.182;2023-02-28T06:55:37;-0.10;99.90
18147;DHT22;9199;48.832;9.182;2023-02-28T06:58:05;-0.10;99.90
18147;DHT22;9199;48.832;9.182;2023-02-28T07:00:40;-0.20;99.90
18147;DHT22;9199;48.832;9.182;2023-02-28T07:03:06;-0.20;99.90
18147;DHT22;9199;48.832;9.182;2023-02-28T07:05:34;-0.20;99.90
18147;DHT22;9199;48.832;9.182;2023-02-28T07:08:01;-0.10;99.90
18147;DHT22;9199;48.832;9.182;2023-02-28T07:10:28;-0.20;99.90
18147;DHT22;9199;48.832;9.182;2023-02-28T07:12:55;-0.10;99.90
18147;DHT22;9199;48.832;9.182;2023-02-28T07:15:23;-0.10;99.90
18147;DHT22;9199;48.832;9.182;2023-02-28T07:17:50;0.00;99.90
18147;DHT22;9199;48.832;9.182;2023-02-28T07:20:17;0.10;99.90
18147;DHT22;9199;48.832;9.182;2023-02-28T07:22:44;0.10;99.90
18147;DHT22;9199;48.832;9.182;2023-02-28T07:25:10;0.10;99.90
18147;DHT22;9199;48.832;9.182;2023-02-28T07:27:37;0.10;99.90
18147;DHT22;9199;48.832;9.182;2023-02-28T07:30:05;0.10;99.90
18147;DHT22;9199;48.832;9.182;2023-02-28T07:32:33;0.20;99.90
18147;DHT22;9199;48.832;9.182;2023-02-28T07:35:03;0.20;99.90
18147;DHT22;9199;48.832;9.182;2023-02-28T07:37:30;0.20;99.90
18147;DHT22;9199;48.832;9.182;2023-02-28T07:40:02;0.20;99.90
18147;DHT22;9199;48.832;9.182;2023-02-28T07:42:32;0.20;99.90
18147;DHT22;9199;48.832;9.182;2023-02-28T07:44:58;0.20;99.90
18147;DHT22;9199;48.832;9.182;2023-02-28T07:47:25;0.20;99.90
18147;DHT22;9199;48.832;9.182;2023-02-28T07:49:53;0.30;99.90
18147;DHT22;9199;48.832;9.182;2023-02-28T07:52:20;0.20;99.90
18147;DHT22;9199;48.832;9.182;2023-02-28T07:54:48;0.20;99.90
18147;DHT22;9199;48.832;9.182;2023-02-28T07:57:15;0.20;99.90
18147;DHT22;9199;48.832;9.182;2023-02-28T07:59:42;0.30;99.90
18147;DHT22;9199;48.832;9.182;2023-02-28T08:02:12;0.30;99.90
18147;DHT22;9199;48.832;9.182;2023-02-28T08:04:39;0.30;99.90
18147;DHT22;9199;48.832;9.182;2023-02-28T08:07:07;0.50;99.90
18147;DHT22;9199;48.832;9.182;2023-02-28T08:09:34;0.40;99.90
18147;DHT22;9199;48.832;9.182;2023-02-28T08:12:01;0.40;99.90
18147;DHT22;9199;48.832;9.182;2023-02-28T08:14:28;0.50;99.90
18147;DHT22;9199;48.832;9.182;2023-02-28T08:16:54;0.50;99.90
18147;DHT22;9199;48.832;9.182;2023-02-28T08:19:21;0.60;99.90
18147;DHT22;9199;48.832;9.182;2023-02-28T08:21:48;0.50;99.90
18147;DHT22;9199;48.832;9.182;2023-02-28T08:24:16;0.50;99.90
18147;DHT22;9199;48.832;9.182;2023-02-28T08:26:42;0.60;99.90
18147;DHT22;9199;48.832;9.182;2023-02-28T08:29:09;0.60;99.90
18147;DHT22;9199;48.832;9.182;2023-02-28T08:31:36;0.70;99.90
18147;DHT22;9199;48.832;9.182;2023-02-28T08:34:05;0.80;99.90
18147;DHT22;9199;48.832;9.182;2023-02-28T08:36:32;0.70;99.90
18147;DHT22;9199;48.832;9.182;2023-02-28T08:38:59;0.80;99.90
18147;DHT22;9199;48.832;9.182;2023-02-28T08:41:27;0.80;99.90
18147;DHT22;9199;48.832;9.182;2023-02-28T08:43:54;0.70;99.90
18147;DHT22;9199;48.832;9.182;2023-02-28T08:46:22;0.60;99.90
18147;DHT22;9199;48.832;9.182;2023-02-28T08:48:51;0.70;99.90
18147;DHT22;9199;48.832;9.182;2023-02-28T08:51:20;0.80;99.90
18147;DHT22;9199;48.832;9.182;2023-02-28T08:53:51;0.80;99.90
18147;DHT22;9199;48.832;9.182;2023-02-28T08:56:19;0.90;99.90
18147;DHT22;9199;48.832;9.182;2023-02-28T08:58:48;0.90;99.90
18147;DHT22;9199;48.832;9.182;2023-02-28T09:01:17;1.00;99.90
18147;DHT22;9199;48.832;9.182;2023-02-28T09:03:44;1.00;99.90
18147;DHT22;9199;48.832;9.182;2023-02-28T09:06:13;1.10;99.90
18147;DHT22;9199;48.832;9.182;2023-02-28T09:08:40;1.10;99.90
18147;DHT22;9199;48.832;9.182;2023-02-28T09:11:08;1.10;99.90
18147;DHT22;9199;48.832;9.182;2023-02-28T09:13:35;1.20;99.90
18147;DHT22;9199;48.832;9.182;2023-02-28T09:16:04;1.30;99.90
18147;DHT22;9199;48.832;9.182;2023-02-28T09:18:33;1.50;99.90
18147;DHT22;9199;48.832;9.182;2023-02-28T09:21:02;1.60;99.90
18147;DHT22;9199;48.832;9.182;2023-02-28T09:23:30;1.70;99.90
18147;DHT22;9199;48.832;9.182;2023-02-28T09:25:56;1.90;99.90
18147;DHT22;9199;48.832;9.182;2023-02-28T09:28:23;2.00;99.90
18147;DHT22;9199;48.832;9.182;2023-02-28T09:30:52;2.00;99.50
18147;DHT22;9199;48.832;9.182;2023-02-28T09:33:21;2.00;99.60
18147;DHT22;9199;48.832;9.182;2023-02-28T09:35:49;2.10;99.10
18147;DHT22;9199;48.832;9.182;2023-02-28T09:38:16;2.10;98.50
18147;DHT22;9199;48.832;9.182;2023-02-28T09:40:49;2.30;98.20
18147;DHT22;9199;48.832;9.182;2023-02-28T09:43:18;2.50;96.90
18147;DHT22;9199;48.832;9.182;2023-02-28T09:45:49;2.50;96.40
18147;DHT22;9199;48.832;9.182;2023-02-28T09:48:21;2.60;95.90
18147;DHT22;9199;48.832;9.182;2023-02-28T09:50:51;2.50;95.70
18147;DHT22;9199;48.832;9.182;2023-02-28T09:53:22;2.50;95.80
18147;DHT22;9199;48.832;9.182;2023-02-28T09:55:55;2.70;95.40
18147;DHT22;9199;48.832;9.182;2023-02-28T09:58:30;2.70;95.40
18147;DHT22;9199;48.832;9.182;2023-02-28T10:01:02;2.80;94.70
18147;DHT22;9199;48.832;9.182;2023-02-28T10:03:35;2.80;94.50
18147;DHT22;9199;48.832;9.182;2023-02-28T10:06:07;2.80;94.20
18147;DHT22;9199;48.832;9.182;2023-02-28T10:08:39;2.90;94.50
18147;DHT22;9199;48.832;9.182;2023-02-28T10:11:12;3.10;94.40
18147;DHT22;9199;48.832;9.182;2023-02-28T10:13:50;3.30;94.10
18147;DHT22;9199;48.832;9.182;2023-02-28T10:16:22;3.50;93.50
18147;DHT22;9199;48.832;9.182;2023-02-28T10:18:55;3.60;93.30
18147;DHT22;9199;48.832;9.182;2023-02-28T10:21:27;3.80;93.30
18147;DHT22;9199;48.832;9.182;2023-02-28T10:24:02;3.80;93.20
18147;DHT22;9199;48.832;9.182;2023-02-28T10:26:31;3.80;93.00
18147;DHT22;9199;48.832;9.182;2023-02-28T10:28:58;3.80;92.60
18147;DHT22;9199;48.832;9.182;2023-02-28T10:31:25;3.80;93.00
18147;DHT22;9199;48.832;9.182;2023-02-28T10:33:54;3.70;93.00
18147;DHT22;9199;48.832;9.182;2023-02-28T10:36:21;3.70;92.90
18147;DHT22;9199;48.832;9.182;2023-02-28T10:38:48;3.70;92.90
18147;DHT22;9199;48.832;9.182;2023-02-28T10:41:16;3.90;92.90
18147;DHT22;9199;48.832;9.182;2023-02-28T10:43:44;4.30;92.40
18147;DHT22;9199;48.832;9.182;2023-02-28T10:46:15;4.50;92.10
18147;DHT22;9199;48.832;9.182;2023-02-28T10:49:02;4.80;91.30
18147;DHT22;9199;48.832;9.182;2023-02-28T10:51:36;4.90;90.60
18147;DHT22;9199;48.832;9.182;2023-02-28T10:54:04;5.00;90.50
18147;DHT22;9199;48.832;9.182;2023-02-28T10:56:32;5.10;90.90
18147;DHT22;9199;48.832;9.182;2023-02-28T10:59:00;5.00;90.80
18147;DHT22;9199;48.832;9.182;2023-02-28T11:01:35;5.20;90.30
18147;DHT22;9199;48.832;9.182;2023-02-28T11:04:16;5.60;88.90
18147;DHT22;9199;48.832;9.182;2023-02-28T11:06:44;5.80;88.00
18147;DHT22;9199;48.832;9.182;2023-02-28T11:09:27;5.90;87.20
18147;DHT22;9199;48.832;9.182;2023-02-28T11:11:55;5.80;87.60
18147;DHT22;9199;48.832;9.182;2023-02-28T11:14:25;5.70;87.60
18147;DHT22;9199;48.832;9.182;2023-02-28T11:16:52;5.70;87.50
18147;DHT22;9199;48.832;9.182;2023-02-28T11:19:24;6.00;86.90
18147;DHT22;9199;48.832;9.182;2023-02-28T11:21:54;6.00;87.70
18147;DHT22;9199;48.832;9.182;2023-02-28T11:24:24;6.30;86.10
18147;DHT22;9199;48.832;9.182;2023-02-28T11:26:52;6.40;85.90
18147;DHT22;9199;48.832;9.182;2023-02-28T11:29:21;6.90;84.60
18147;DHT22;9199;48.832;9.182;2023-02-28T11:32:13;7.50;83.70
18147;DHT22;9199;48.832;9.182;2023-02-28T11:34:44;7.60;81.20
18147;DHT22;9199;48.832;9.182;2023-02-28T11:37:13;7.20;81.80
18147;DHT22;9199;48.832;9.182;2023-02-28T11:39:41;7.20;82.00
18147;DHT22;9199;48.832;9.182;2023-02-28T11:42:36;7.30;81.00
18147;DHT22;9199;48.832;9.182;2023-02-28T11:45:18;7.70;80.20
18147;DHT22;9199;48.832;9.182;2023-02-28T11:47:55;7.30;80.10
18147;DHT22;9199;48.832;9.182;2023-02-28T11:50:42;7.60;80.00
18147;DHT22;9199;48.832;9.182;2023-02-28T11:53:19;8.20;78.60
18147;DHT22;9199;48.832;9.182;2023-02-28T11:55:53;8.40;78.20
18147;DHT22;9199;48.832;9.182;2023-02-28T11:58:29;8.90;75.30
18147;DHT22;9199;48.832;9.182;2023-02-28T12:01:05;8.80;75.30
18147;DHT22;9199;48.832;9.182;2023-02-28T12:03:42;8.70;75.10
18147;DHT22;9199;48.832;9.182;2023-02-28T12:06:18;8.70;74.10
18147;DHT22;9199;48.832;9.182;2023-02-28T12:08:52;9.20;73.80
18147;DHT22;9199;48.832;9.182;2023-02-28T12:11:30;10.10;70.20
18147;DHT22;9199;48.832;9.182;2023-02-28T12:14:14;11.00;67.50
18147;DHT22;9199;48.832;9.182;2023-02-28T12:16:55;11.30;64.80
18147;DHT22;9199;48.832;9.182;2023-02-28T12:19:29;11.70;63.60
18147;DHT22;9199;48.832;9.182;2023-02-28T12:22:21;12.10;62.00
18147;DHT22;9199;48.832;9.182;2023-02-28T12:24:59;11.90;60.50
18147;DHT22;9199;48.832;9.182;2023-02-28T12:27:31;11.60;60.60
18147;DHT22;9199;48.832;9.182;2023-02-28T12:30:02;11.10;61.20
18147;DHT22;9199;48.832;9.182;2023-02-28T12:32:35;10.90;61.30
18147;DHT22;9199;48.832;9.182;2023-02-28T12:35:06;11.40;60.20
18147;DHT22;9199;48.832;9.182;2023-02-28T12:37:41;11.10;60.40
18147;DHT22;9199;48.832;9.182;2023-02-28T12:40:13;11.00;60.60
18147;DHT22;9199;48.832;9.182;2023-02-28T12:42:43;11.60;59.30
18147;DHT22;9199;48.832;9.182;2023-02-28T12:45:17;12.50;58.40
18147;DHT22;9199;48.832;9.182;2023-02-28T12:47:46;12.20;56.90
18147;DHT22;9199;48.832;9.182;2023-02-28T12:50:15;12.00;57.10
18147;DHT22;9199;48.832;9.182;2023-02-28T12:52:53;11.90;57.20
18147;DHT22;9199;48.832;9.182;2023-02-28T12:55:28;12.10;56.80
18147;DHT22;9199;48.832;9.182;2023-02-28T12:58:05;11.80;57.50
18147;DHT22;9199;48.832;9.182;2023-02-28T13:00:36;12.00;57.80
18147;DHT22;9199;48.832;9.182;2023-02-28T13:03:27;11.80;56.80
18147;DHT22;9199;48.832;9.182;2023-02-28T13:06:21;11.80;56.70
18147;DHT22;9199;48.832;9.182;2023-02-28T13:09:04;11.60;57.10
18147;DHT22;9199;48.832;9.182;2023-02-28T13:11:33;11.10;57.50
18147;DHT22;9199;48.832;9.182;2023-02-28T13:14:03;10.70;58.30
18147;DHT22;9199;48.832;9.182;2023-02-28T13:17:01;10.50;59.00
18147;DHT22;9199;48.832;9.182;2023-02-28T13:19:30;11.20;57.40
18147;DHT22;9199;48.832;9.182;2023-02-28T13:21:57;11.90;55.50
18147;DHT22;9199;48.832;9.182;2023-02-28T13:24:47;11.80;55.90
18147;DHT22;9199;48.832;9.182;2023-02-28T13:27:24;11.80;56.10
18147;DHT22;9199;48.832;9.182;2023-02-28T13:29:52;12.20;56.00
18147;DHT22;9199;48.832;9.182;2023-02-28T13:32:31;12.40;56.20
18147;DHT22;9199;48.832;9.182;2023-02-28T13:35:36;12.60;55.70
18147;DHT22;9199;48.832;9.182;2023-02-28T13:38:17;12.80;54.00
18147;DHT22;9199;48.832;9.182;2023-02-28T13:40:45;12.60;54.80
18147;DHT22;9199;48.832;9.182;2023-02-28T13:43:17;12.40;55.00
18147;DHT22;9199;48.832;9.182;2023-02-28T13:46:06;12.60;54.90
18147;DHT22;9199;48.832;9.182;2023-02-28T13:48:34;13.00;53.10
18147;DHT22;9199;48.832;9.182;2023-02-28T13:51:40;12.90;60.70
18147;DHT22;9199;48.832;9.182;2023-02-28T13:54:18;13.60;59.90
18147;DHT22;9199;48.832;9.182;2023-02-28T13:57:01;13.60;54.70
18147;DHT22;9199;48.832;9.182;2023-02-28T13:59:37;13.50;53.80
18147;DHT22;9199;48.832;9.182;2023-02-28T14:02:30;13.30;53.00
18147;DHT22;9199;48.832;9.182;2023-02-28T14:05:02;13.50;52.10
18147;DHT22;9199;48.832;9.182;2023-02-28T14:07:36;13.20;51.90
18147;DHT22;9199;48.832;9.182;2023-02-28T14:10:07;13.20;52.80
18147;DHT22;9199;48.832;9.182;2023-02-28T14:13:03;12.60;53.10
18147;DHT22;9199;48.832;9.182;2023-02-28T14:15:55;12.00;54.10
18147;DHT22;9199;48.832;9.182;2023-02-28T14:18:29;11.90;55.00
18147;DHT22;9199;48.832;9.182;2023-02-28T14:21:16;11.90;53.80
18147;DHT22;9199;48.832;9.182;2023-02-28T14:27:07;11.80;53.90
18147;DHT22;9199;48.832;9.182;2023-02-28T14:32:33;12.80;52.90
18147;DHT22;9199;48.832;9.182;2023-02-28T14:35:10;12.70;53.10
18147;DHT22;9199;48.832;9.182;2023-02-28T14:37:41;13.40;52.10
18147;DHT22;9199;48.832;9.182;2023-02-28T14:40:13;13.00;51.70
18147;DHT22;9199;48.832;9.182;2023-02-28T14:42:47;12.40;52.10
18147;DHT22;9199;48.832;9.182;2023-02-28T14:45:20;12.10;53.20
18147;DHT22;9199;48.832;9.182;2023-02-28T14:47:48;12.30;53.00
18147;DHT22;9199;48.832;9.182;2023-02-28T14:50:19;12.30;53.00
18147;DHT22;9199;48.832;9.182;2023-02-28T14:52:48;11.80;53.60
18147;DHT22;9199;48.832;9.182;2023-02-28T14:55:18;11.80;53.60
18147;DHT22;9199;48.832;9.182;2023-02-28T14:57:52;12.50;52.70
18147;DHT22;9199;48.832;9.182;2023-02-28T15:00:24;13.20;51.70
18147;DHT22;9199;48.832;9.182;2023-02-28T15:02:51;13.00;51.90
18147;DHT22;9199;48.832;9.182;2023-02-28T15:05:24;13.10;51.80
18147;DHT22;9199;48.832;9.182;2023-02-28T15:08:02;13.70;50.70
18147;DHT22;9199;48.832;9.182;2023-02-28T15:10:29;13.60;50.10
18147;DHT22;9199;48.832;9.182;2023-02-28T15:12:58;13.10;50.70
18147;DHT22;9199;48.832;9.182;2023-02-28T15:15:40;12.20;52.40
18147;DHT22;9199;48.832;9.182;2023-02-28T15:18:13;11.10;54.70
18147;DHT22;9199;48.832;9.182;2023-02-28T15:20:42;9.90;57.00
18147;DHT22;9199;48.832;9.182;2023-02-28T15:23:10;9.40;58.70
18147;DHT22;9199;48.832;9.182;2023-02-28T15:25:38;8.90;59.50
18147;DHT22;9199;48.832;9.182;2023-02-28T15:28:13;8.60;60.40
18147;DHT22;9199;48.832;9.182;2023-02-28T15:30:52;8.20;61.20
18147;DHT22;9199;48.832;9.182;2023-02-28T15:33:20;7.80;62.60
18147;DHT22;9199;48.832;9.182;2023-02-28T15:35:48;7.50;63.70
18147;DHT22;9199;48.832;9.182;2023-02-28T15:38:17;7.40;64.70
18147;DHT22;9199;48.832;9.182;2023-02-28T15:40:46;7.40;64.80
18147;DHT22;9199;48.832;9.182;2023-02-28T15:43:24;7.40;65.00
18147;DHT22;9199;48.832;9.182;2023-02-28T15:45:56;7.40;64.60
18147;DHT22;9199;48.832;9.182;2023-02-28T15:48:26;7.40;64.80
18147;DHT22;9199;48.832;9.182;2023-02-28T15:50:56;7.30;65.10
18147;DHT22;9199;48.832;9.182;2023-02-28T15:53:26;7.20;65.30
18147;DHT22;9199;48.832;9.182;2023-02-28T15:55:59;7.00;65.70
18147;DHT22;9199;48.832;9.182;2023-02-28T15:58:26;7.10;66.10
18147;DHT22;9199;48.832;9.182;2023-02-28T16:01:06;7.60;65.40
18147;DHT22;9199;48.832;9.182;2023-02-28T16:03:40;8.10;65.00
18147;DHT22;9199;48.832;9.182;2023-02-28T16:06:09;8.60;63.40
18147;DHT22;9199;48.832;9.182;2023-02-28T16:08:37;9.20;61.50
18147;DHT22;9199;48.832;9.182;2023-02-28T16:11:04;9.10;61.50
18147;DHT22;9199;48.832;9.182;2023-02-28T16:13:31;9.10;62.30
18147;DHT22;9199;48.832;9.182;2023-02-28T16:15:58;8.70;62.50
18147;DHT22;9199;48.832;9.182;2023-02-28T16:18:28;8.20;63.30
18147;DHT22;9199;48.832;9.182;2023-02-28T16:20:54;7.60;64.60
18147;DHT22;9199;48.832;9.182;2023-02-28T16:23:21;7.30;66.00
18147;DHT22;9199;48.832;9.182;2023-02-28T16:25:48;7.00;67.00